Time;durP1;ratioP1;P1;durP2;ratioP2;P2;SDS_P1;SDS_P2;PMS_P1;PMS_P2;Temp;Humidity;BMP_temperature;BMP_pressure;BME280_temperature;BME280_humidity;BME280_pressure;Samples;Min_cycle;Max_cycle;Signal;HPM_P1;HPM_P2
2022/06/17 00:00:18;;;;;;;3.13;1.45;;;;;;;14.91;79.41;102165.72;6401408;27;20058;-76
2022/06/17 00:03:19;;;;;;;2.20;1.60;;;;;;;14.91;81.13;102165.72;6401607;27;20405;-76
2022/06/17 00:06:22;;;;;;;2.20;1.80;;;;;;;14.90;83.07;102159.59;6401299;27;20050;-76
2022/06/17 00:09:26;;;;;;;2.20;1.50;;;;;;;14.89;83.76;102151.69;6399876;27;20051;-76
2022/06/17 00:12:28;;;;;;;2.65;1.27;;;;;;;14.85;83.73;102160.72;6401138;27;20046;-75
2022/06/17 00:15:30;;;;;;;2.80;1.65;;;;;;;14.76;84.33;102148.81;6401170;27;20043;-76
2022/06/17 00:18:31;;;;;;;3.75;1.40;;;;;;;14.68;85.31;102146.53;6401429;27;20046;-76
2022/06/17 00:21:36;;;;;;;2.30;1.67;;;;;;;14.63;85.56;102151.19;6400892;27;20056;-76
2022/06/17 00:24:38;;;;;;;2.08;1.63;;;;;;;14.58;85.20;102136.44;6400895;27;20054;-76
2022/06/17 00:27:40;;;;;;;3.08;1.83;;;;;;;14.47;85.02;102145.72;6401270;27;20500;-76
2022/06/17 00:30:42;;;;;;;3.17;1.75;;;;;;;14.42;83.24;102162.75;6400757;27;20046;-76
2022/06/17 00:33:43;;;;;;;3.58;2.10;;;;;;;14.38;82.42;102169.97;6399033;27;20046;-76
2022/06/17 00:36:45;;;;;;;1.90;1.52;;;;;;;14.34;82.61;102167.53;6401147;27;20042;-75
2022/06/17 00:39:46;;;;;;;3.20;2.17;;;;;;;14.32;81.39;102159.66;6400456;27;20054;-75
2022/06/17 00:42:50;;;;;;;1.85;1.50;;;;;;;14.29;81.19;102151.00;6400905;27;20137;-76
2022/06/17 00:46:02;;;;;;;2.72;2.10;;;;;;;14.26;81.64;102152.03;6400127;27;20050;-76
2022/06/17 00:49:11;;;;;;;2.83;1.85;;;;;;;14.24;81.26;102140.66;6400519;27;20045;-76
2022/06/17 00:52:20;;;;;;;3.00;1.98;;;;;;;14.23;80.88;102138.09;6400173;27;20043;-76
2022/06/17 00:55:27;;;;;;;3.90;1.80;;;;;;;14.10;80.99;102151.88;6400168;27;20050;-76
2022/06/17 00:58:32;;;;;;;3.90;1.90;;;;;;;14.06;81.03;102154.72;6400359;27;20046;-76
2022/06/17 01:01:43;;;;;;;4.97;2.22;;;;;;;13.99;81.39;102159.44;6399936;27;20047;-76
2022/06/17 01:04:48;;;;;;;3.28;2.05;;;;;;;13.91;82.18;102164.19;6373362;27;20109;-76
2022/06/17 01:07:54;;;;;;;2.58;1.63;;;;;;;13.88;82.50;102170.47;6374429;27;20047;-76
2022/06/17 01:10:54;;;;;;;3.20;2.30;;;;;;;13.84;82.77;102174.16;6373973;27;20051;-76
2022/06/17 01:14:00;;;;;;;2.83;2.08;;;;;;;13.83;82.52;102183.03;6374015;27;20452;-76
2022/06/17 01:17:03;;;;;;;1.77;1.60;;;;;;;13.78;82.78;102190.31;6374666;27;20043;-76
2022/06/17 01:20:08;;;;;;;2.78;2.17;;;;;;;13.82;82.84;102189.25;6373848;27;20054;-76
2022/06/17 01:23:14;;;;;;;3.65;2.00;;;;;;;13.88;82.18;102198.69;6373962;27;20043;-76
2022/06/17 01:26:16;;;;;;;3.15;2.30;;;;;;;13.89;81.94;102193.31;6373821;27;20498;-75
2022/06/17 01:29:18;;;;;;;5.32;2.20;;;;;;;13.83;82.41;102200.66;6373643;27;20051;-76
2022/06/17 01:32:24;;;;;;;2.90;2.30;;;;;;;13.73;82.98;102194.06;6374740;27;20043;-75
2022/06/17 01:35:29;;;;;;;3.35;1.85;;;;;;;13.70;83.85;102197.69;6373612;27;20054;-75
2022/06/17 01:38:35;;;;;;;3.80;2.30;;;;;;;13.64;84.13;102201.47;6373922;27;20051;-76
2022/06/17 01:41:37;;;;;;;5.32;2.47;;;;;;;13.60;84.46;102204.31;6372970;27;20047;-76
2022/06/17 01:44:41;;;;;;;3.95;2.20;;;;;;;13.54;84.41;102204.56;6373417;27;20051;-76
2022/06/17 01:47:45;;;;;;;4.15;2.55;;;;;;;13.52;84.85;102211.69;6373374;27;20043;-73
2022/06/17 01:50:49;;;;;;;3.22;2.00;;;;;;;13.51;84.97;102210.84;6373083;27;20504;-73
2022/06/17 01:53:57;;;;;;;4.03;2.22;;;;;;;13.45;85.09;102216.38;6372772;27;20485;-73
2022/06/17 01:57:01;;;;;;;4.10;2.33;;;;;;;13.45;85.36;102219.03;6373148;27;20128;-73
2022/06/17 02:00:15;;;;;;;3.53;2.08;;;;;;;13.44;85.23;102214.63;6372334;27;20062;-73
2022/06/17 02:03:21;;;;;;;3.80;2.33;;;;;;;13.44;85.15;102204.06;6388798;27;20058;-74
2022/06/17 02:06:27;;;;;;;3.35;2.30;;;;;;;13.43;84.47;102200.59;6398278;27;20047;-73
2022/06/17 02:09:30;;;;;;;3.25;2.00;;;;;;;13.37;83.89;102200.00;6398481;27;20042;-72
2022/06/17 02:12:31;;;;;;;3.75;2.00;;;;;;;13.31;84.76;102203.75;6371557;27;20047;-73
2022/06/17 02:15:34;;;;;;;4.85;2.33;;;;;;;13.25;85.05;102192.56;6370920;27;20395;-73
2022/06/17 02:18:38;;;;;;;2.97;1.73;;;;;;;13.20;85.08;102204.16;6372487;27;20494;-73
2022/06/17 02:21:44;;;;;;;3.50;2.10;;;;;;;13.16;85.36;102196.41;6371943;27;20043;-73
2022/06/17 02:24:50;;;;;;;2.58;1.90;;;;;;;13.11;85.42;102203.66;6372286;27;20054;-73
2022/06/17 02:27:54;;;;;;;2.97;2.08;;;;;;;13.06;85.52;102201.22;6372183;27;20476;-74
2022/06/17 02:30:57;;;;;;;3.63;2.50;;;;;;;13.02;85.47;102190.84;6371570;27;20054;-73
2022/06/17 02:33:59;;;;;;;3.50;2.22;;;;;;;12.95;86.65;102199.03;6389917;27;20043;-74
2022/06/17 02:37:05;;;;;;;3.85;2.47;;;;;;;12.93;86.57;102208.75;6376053;27;20054;-73
2022/06/17 02:40:25;;;;;;;3.47;2.25;;;;;;;12.95;86.71;102209.56;6371563;27;20054;-73
2022/06/17 02:43:31;;;;;;;2.97;2.17;;;;;;;12.92;87.20;102201.78;6371282;27;20043;-73
2022/06/17 02:46:36;;;;;;;4.65;2.53;;;;;;;12.85;87.62;102196.78;6368371;27;20512;-73
2022/06/17 02:49:38;;;;;;;4.72;2.55;;;;;;;12.86;87.57;102187.97;6371883;27;20517;-73
2022/06/17 02:52:41;;;;;;;2.47;2.13;;;;;;;12.87;87.63;102184.41;6371875;27;20521;-73
2022/06/17 02:55:45;;;;;;;4.10;2.45;;;;;;;12.83;88.75;102183.66;6369304;28;20050;-73
2022/06/17 02:58:55;;;;;;;4.13;2.30;;;;;;;12.80;88.91;102177.66;6370659;28;20050;-73
2022/06/17 03:02:01;;;;;;;5.75;2.33;;;;;;;12.78;89.33;102172.44;6370162;27;20051;-73
2022/06/17 03:05:03;;;;;;;3.17;2.47;;;;;;;12.78;89.27;102180.34;6367876;28;20039;-73
2022/06/17 03:08:14;;;;;;;3.33;2.33;;;;;;;12.81;89.16;102174.97;6370552;28;20050;-74
2022/06/17 03:11:18;;;;;;;4.15;2.50;;;;;;;12.81;89.46;102169.69;6371628;27;20047;-73
2022/06/17 03:14:22;;;;;;;4.05;2.47;;;;;;;12.85;89.41;102171.28;6371455;28;20051;-73
2022/06/17 03:17:25;;;;;;;4.68;2.92;;;;;;;12.84;89.49;102171.31;6371620;28;20047;-73
2022/06/17 03:20:30;;;;;;;4.03;2.78;;;;;;;12.88;89.25;102170.28;6371476;28;20054;-73
2022/06/17 03:23:40;;;;;;;3.95;2.45;;;;;;;12.83;89.67;102165.19;6371631;28;20047;-73
2022/06/17 03:26:50;;;;;;;3.63;2.17;;;;;;;12.82;91.38;102170.53;6373070;27;20053;-73
2022/06/17 03:29:52;;;;;;;3.15;2.15;;;;;;;12.83;90.93;102173.13;6376113;27;20058;-73
2022/06/17 03:33:01;;;;;;;3.80;2.50;;;;;;;12.86;91.08;102177.41;6377812;27;20043;-73
2022/06/17 03:36:09;;;;;;;3.30;2.50;;;;;;;12.91;91.15;102172.81;6376160;27;20650;-73
2022/06/17 03:39:18;;;;;;;4.55;2.67;;;;;;;12.93;90.79;102178.88;6376481;27;20043;-73
2022/06/17 03:42:26;;;;;;;4.20;2.30;;;;;;;12.95;91.21;102177.06;6376054;27;20058;-73
2022/06/17 03:45:32;;;;;;;4.90;2.85;;;;;;;12.98;92.65;102182.19;6376020;27;20285;-74
2022/06/17 03:48:44;;;;;;;6.32;2.65;;;;;;;13.04;92.09;102184.59;6376187;27;20047;-73
2022/06/17 03:51:46;;;;;;;3.78;2.85;;;;;;;13.08;91.64;102185.31;6375647;27;20455;-73
2022/06/17 03:54:47;;;;;;;6.05;2.97;;;;;;;13.14;91.61;102190.34;6375675;27;20047;-73
2022/06/17 03:57:53;;;;;;;3.80;2.40;;;;;;;13.06;92.33;102181.88;6376027;27;20043;-73
2022/06/17 04:00:59;;;;;;;4.88;2.83;;;;;;;13.07;94.06;102186.22;6376506;27;20043;-73
2022/06/17 04:04:06;;;;;;;5.00;2.90;;;;;;;13.11;93.66;102179.91;6375584;27;20421;-72
2022/06/17 04:07:11;;;;;;;4.93;2.70;;;;;;;13.12;94.66;102178.97;6374069;27;20039;-73
2022/06/17 04:10:16;;;;;;;6.07;2.33;;;;;;;13.11;95.24;102187.81;6373877;27;20043;-73
2022/06/17 04:13:22;;;;;;;6.78;2.90;;;;;;;13.19;95.98;102185.75;6368308;27;20413;-73
2022/06/17 04:16:32;;;;;;;2.92;2.20;;;;;;;13.27;95.65;102186.31;6373801;27;20476;-73
2022/06/17 04:19:34;;;;;;;4.78;3.00;;;;;;;13.29;96.08;102189.75;6373785;27;20041;-73
2022/06/17 04:22:36;;;;;;;4.18;2.78;;;;;;;13.30;95.81;102188.81;6374120;27;20050;-73
2022/06/17 04:25:43;;;;;;;4.35;2.45;;;;;;;13.31;96.16;102184.41;6374925;27;20141;-73
2022/06/17 04:28:49;;;;;;;5.45;3.17;;;;;;;13.28;96.85;102189.81;6375388;27;20043;-73
2022/06/17 04:32:01;;;;;;;5.70;3.78;;;;;;;13.33;95.05;102196.63;6375698;27;20047;-73
2022/06/17 04:35:02;;;;;;;6.03;3.72;;;;;;;13.44;94.19;102196.16;6371638;27;20043;-73
2022/06/17 04:38:04;;;;;;;4.65;3.22;;;;;;;13.51;93.54;102195.00;6373164;27;20051;-73
2022/06/17 04:41:07;;;;;;;5.85;3.08;;;;;;;13.58;93.04;102190.28;6373135;27;20039;-73
2022/06/17 04:44:14;;;;;;;3.40;2.83;;;;;;;13.60;93.50;102183.19;6372545;27;20047;-73
2022/06/17 04:47:19;;;;;;;6.90;2.80;;;;;;;13.68;93.22;102186.34;6373402;27;20061;-73
2022/06/17 04:50:23;;;;;;;4.80;2.95;;;;;;;13.76;92.82;102186.00;6372325;27;20427;-73
2022/06/17 04:53:26;;;;;;;6.43;2.55;;;;;;;13.78;93.16;102192.09;6373256;27;20050;-73
2022/06/17 04:56:30;;;;;;;4.60;2.55;;;;;;;13.74;93.95;102196.63;6372448;27;20051;-73
2022/06/17 04:59:36;;;;;;;6.32;3.60;;;;;;;13.82;93.62;102198.97;6372680;27;20039;-73
2022/06/17 05:02:37;;;;;;;5.28;3.03;;;;;;;13.95;91.20;102205.44;6375669;27;20363;-72
2022/06/17 05:05:42;;;;;;;4.82;2.97;;;;;;;14.04;90.10;102199.72;6371967;27;20039;-73
2022/06/17 05:08:48;;;;;;;4.05;3.00;;;;;;;14.13;89.97;102201.13;6372759;27;20050;-73
2022/06/17 05:11:54;;;;;;;4.57;3.10;;;;;;;14.23;89.30;102194.47;6372008;27;20498;-73
2022/06/17 05:15:01;;;;;;;6.70;2.92;;;;;;;14.26;89.15;102196.09;6372426;27;20046;-73
2022/06/17 05:18:03;;;;;;;6.00;2.90;;;;;;;14.26;88.99;102194.34;6372302;27;20049;-74
2022/06/17 05:21:04;;;;;;;4.53;2.75;;;;;;;14.24;89.31;102190.03;6372226;27;20042;-73
2022/06/17 05:24:06;;;;;;;2.63;2.15;;;;;;;14.26;89.80;102190.81;6370305;27;20483;-73
2022/06/17 05:27:08;;;;;;;5.40;3.10;;;;;;;14.31;89.24;102194.13;6372218;27;20043;-73
2022/06/17 05:30:12;;;;;;;5.20;3.28;;;;;;;14.36;88.40;102198.28;6371672;27;20050;-73
2022/06/17 05:33:15;;;;;;;4.82;2.70;;;;;;;14.51;85.86;102204.66;6372236;27;20669;-73
2022/06/17 05:36:18;;;;;;;4.53;2.60;;;;;;;14.59;85.62;102205.19;6368928;27;20047;-73
2022/06/17 05:39:19;;;;;;;4.38;2.30;;;;;;;14.69;84.64;102197.66;6371997;27;20050;-73
2022/06/17 05:42:20;;;;;;;3.50;2.40;;;;;;;14.76;84.45;102208.78;6371469;27;20054;-73
2022/06/17 05:45:25;;;;;;;4.40;2.30;;;;;;;14.83;84.57;102207.59;6371383;27;20594;-73
2022/06/17 05:48:26;;;;;;;4.78;2.63;;;;;;;14.91;83.78;102202.78;6371454;27;20418;-73
2022/06/17 05:51:28;;;;;;;3.90;2.10;;;;;;;15.04;82.62;102192.47;6371694;27;20035;-73
2022/06/17 05:54:29;;;;;;;5.15;2.95;;;;;;;15.11;82.15;102200.00;6372489;27;20054;-73
2022/06/17 05:57:31;;;;;;;3.75;2.67;;;;;;;15.20;81.51;102204.00;6373011;27;20047;-73
2022/06/17 06:00:34;;;;;;;4.38;2.75;;;;;;;15.28;80.59;102204.47;6372699;27;20494;-73
2022/06/17 06:03:36;;;;;;;5.82;2.13;;;;;;;15.37;79.72;102208.47;6372914;27;20050;-73
2022/06/17 06:06:37;;;;;;;5.85;2.72;;;;;;;15.43;79.47;102201.06;6372462;27;20395;-73
2022/06/17 06:09:39;;;;;;;3.80;2.30;;;;;;;15.53;78.67;102205.91;6372610;27;20043;-73
2022/06/17 06:13:03;;;;;;;4.97;2.50;;;;;;;15.63;77.65;102205.38;6372811;27;20134;-73
2022/06/17 06:16:05;;;;;;;5.90;1.95;;;;;;;15.70;78.06;102203.28;6372618;27;20134;-74
2022/06/17 06:19:07;;;;;;;5.32;2.00;;;;;;;15.83;76.54;102203.50;6373775;27;20050;-73
2022/06/17 06:22:08;;;;;;;2.85;2.00;;;;;;;15.94;75.65;102207.31;6372151;27;20047;-73
2022/06/17 06:25:12;;;;;;;3.30;1.90;;;;;;;16.06;73.46;102195.19;6372067;27;20418;-73
2022/06/17 06:28:17;;;;;;;3.83;2.40;;;;;;;16.15;71.66;102191.19;6372494;27;20054;-73
2022/06/17 06:31:25;;;;;;;3.03;1.63;;;;;;;16.26;72.10;102193.25;6372158;27;20050;-73
2022/06/17 06:34:26;;;;;;;1.95;1.60;;;;;;;16.32;70.39;102188.50;6372113;27;20046;-72
2022/06/17 06:37:27;;;;;;;2.55;1.52;;;;;;;16.41;68.24;102182.69;6372482;27;20047;-72
2022/06/17 06:40:29;;;;;;;3.10;1.80;;;;;;;16.52;67.56;102190.03;6371933;27;20039;-73
2022/06/17 06:43:31;;;;;;;3.30;1.88;;;;;;;16.58;67.94;102184.41;6371755;27;20055;-73
2022/06/17 06:46:34;;;;;;;2.30;1.75;;;;;;;16.68;67.14;102190.91;6371762;27;20050;-73
2022/06/17 06:49:36;;;;;;;2.35;1.38;;;;;;;16.77;67.63;102191.38;6373020;27;20593;-74
2022/06/17 06:52:37;;;;;;;3.10;1.38;;;;;;;16.88;67.02;102191.63;6371921;27;20430;-73
2022/06/17 06:55:39;;;;;;;3.28;1.52;;;;;;;17.00;64.95;102204.19;6371627;28;20047;-73
2022/06/17 06:58:40;;;;;;;7.10;1.30;;;;;;;17.15;64.42;102223.72;6372025;28;20051;-73
2022/06/17 07:01:43;;;;;;;1.42;1.05;;;;;;;17.27;64.11;102222.16;6374725;27;20047;-73
2022/06/17 07:04:44;;;;;;;3.40;1.75;;;;;;;17.48;64.18;102220.88;6377037;27;20051;-73
2022/06/17 07:07:46;;;;;;;6.93;1.80;;;;;;;17.68;64.37;102199.31;6377239;27;20051;-73
2022/06/17 07:10:49;;;;;;;4.05;1.15;;;;;;;17.88;63.32;102205.25;6376781;27;20043;-72
2022/06/17 07:13:50;;;;;;;5.93;1.50;;;;;;;18.05;61.43;102206.88;6376704;27;20406;-73
2022/06/17 07:16:53;;;;;;;2.20;1.20;;;;;;;18.23;58.70;102203.09;6376924;27;20047;-73
2022/06/17 07:19:54;;;;;;;4.25;2.40;;;;;;;18.21;58.95;102205.84;6374019;27;20052;-73
2022/06/17 07:22:56;;;;;;;5.78;1.27;;;;;;;18.16;59.28;102204.41;6368549;27;20047;-73
2022/06/17 07:25:58;;;;;;;1.45;1.20;;;;;;;18.17;59.82;102207.00;6368480;27;20062;-73
2022/06/17 07:29:00;;;;;;;1.80;1.20;;;;;;;18.22;60.06;102212.03;6372684;27;20054;-72
2022/06/17 07:32:03;;;;;;;2.50;1.30;;;;;;;18.22;61.38;102206.72;6373046;27;20418;-73
2022/06/17 07:35:04;;;;;;;4.93;1.25;;;;;;;18.28;60.10;102186.84;6376149;27;20417;-73
2022/06/17 07:41:26;;;;;;;2.88;1.20;;;;;;;18.52;59.03;102186.13;6374331;27;20051;-73
2022/06/17 07:44:27;;;;;;;2.28;1.20;;;;;;;18.61;57.32;102187.34;6374090;27;20058;-73
2022/06/17 07:47:30;;;;;;;2.03;1.10;;;;;;;18.80;54.29;102189.69;6376009;27;20417;-72
2022/06/17 07:50:34;;;;;;;1.35;1.00;;;;;;;18.84;53.42;102177.03;6388696;27;20042;-73
2022/06/17 07:53:41;;;;;;;4.22;1.30;;;;;;;18.84;55.00;102177.88;6401984;27;20127;-73
2022/06/17 07:56:42;;;;;;;1.83;0.90;;;;;;;18.98;55.33;102176.97;6375402;27;20075;-75
2022/06/17 07:59:43;;;;;;;2.97;1.10;;;;;;;19.05;55.05;102167.63;6350017;28;20050;-75
2022/06/17 08:02:46;;;;;;;1.52;1.30;;;;;;;19.04;54.88;102168.59;6350231;28;20056;-75
2022/06/17 08:05:50;;;;;;;2.65;1.20;;;;;;;18.99;54.30;102168.91;6367008;27;20050;-75
2022/06/17 08:08:52;;;;;;;1.70;1.20;;;;;;;18.96;53.80;102166.44;6367661;27;20055;-75
2022/06/17 08:11:53;;;;;;;1.83;1.20;;;;;;;19.02;54.57;102163.34;6373992;27;20039;-75
2022/06/17 08:14:56;;;;;;;3.10;1.40;;;;;;;19.11;53.27;102161.03;6374844;27;20047;-75
2022/06/17 08:17:59;;;;;;;1.65;1.48;;;;;;;19.17;52.81;102166.84;6375930;27;20093;-75
2022/06/17 08:21:01;;;;;;;1.55;1.20;;;;;;;19.20;53.53;102166.59;6376222;27;20669;-75
2022/06/17 08:24:02;;;;;;;2.67;1.45;;;;;;;19.26;52.62;102166.22;6374996;27;20050;-75
2022/06/17 08:27:05;;;;;;;1.63;0.98;;;;;;;19.28;52.96;102163.44;6375490;27;20074;-75
2022/06/17 08:30:08;;;;;;;3.78;1.13;;;;;;;19.29;53.43;102154.47;6374653;27;20043;-75
2022/06/17 08:33:11;;;;;;;1.95;1.13;;;;;;;19.31;54.21;102155.25;6375287;27;20051;-75
2022/06/17 08:36:15;;;;;;;1.98;1.30;;;;;;;19.48;54.35;102154.94;6374846;27;20635;-75
2022/06/17 08:39:16;;;;;;;1.02;0.93;;;;;;;19.59;53.34;102143.53;6375067;27;20047;-75
2022/06/17 08:42:35;;;;;;;8.65;1.60;;;;;;;19.64;53.37;102144.09;6374450;27;20541;-75
2022/06/17 08:45:46;;;;;;;3.15;2.00;;;;;;;19.75;53.36;102140.66;6374551;27;20054;-75
2022/06/17 08:49:11;;;;;;;6.95;1.60;;;;;;;19.84;54.19;102133.84;6380145;27;20038;-75
2022/06/17 08:52:29;;;;;;;1.55;1.20;;;;;;;19.87;54.18;102126.47;6375926;27;20395;-75
2022/06/17 08:55:37;;;;;;;4.63;1.20;;;;;;;19.94;53.09;102127.75;6367191;27;20055;-75
2022/06/17 08:58:49;;;;;;;1.77;0.93;;;;;;;20.18;53.55;102132.31;6374382;27;20050;-74
2022/06/17 09:01:58;;;;;;;1.95;1.45;;;;;;;20.41;52.11;102128.81;6374584;27;20050;-75
2022/06/17 09:05:14;;;;;;;2.22;1.50;;;;;;;20.53;50.50;102127.13;6374107;27;20059;-75
2022/06/17 09:08:30;;;;;;;3.05;1.73;;;;;;;20.51;50.95;102127.22;6372667;27;20100;-75
2022/06/17 09:11:40;;;;;;;3.50;1.30;;;;;;;20.45;52.12;102126.78;6368859;27;20039;-75
2022/06/17 09:14:51;;;;;;;1.85;1.15;;;;;;;20.46;51.57;102128.50;6372284;27;20050;-75
2022/06/17 09:18:00;;;;;;;5.38;1.27;;;;;;;20.49;51.57;102122.97;6368408;27;20077;-75
2022/06/17 09:21:08;;;;;;;1.48;1.17;;;;;;;20.57;52.96;102123.22;6371387;27;20039;-74
2022/06/17 09:24:16;;;;;;;2.70;1.30;;;;;;;20.70;51.35;102133.88;6369354;27;20043;-74
2022/06/17 09:27:22;;;;;;;1.65;1.10;;;;;;;20.77;51.13;102129.78;6365263;27;20451;-75
2022/06/17 09:30:29;;;;;;;5.13;1.20;;;;;;;20.80;50.63;102132.22;6367104;27;20044;-74
2022/06/17 09:33:38;;;;;;;4.20;1.08;;;;;;;20.96;49.48;102140.81;6348429;28;20057;-75
2022/06/17 09:36:44;;;;;;;;;;;;;;;21.07;48.43;102147.16;6348170;28;20719;-75
2022/06/17 09:39:52;;;;;;;2.53;1.10;;;;;;;21.01;49.94;102141.31;6347980;28;20014;-76
2022/06/17 09:42:58;;;;;;;2.80;1.20;;;;;;;21.06;51.49;102143.63;6347922;28;20097;-75
2022/06/17 09:46:07;;;;;;;1.25;1.08;;;;;;;21.13;50.98;102142.22;6347716;28;20051;-76
2022/06/17 09:49:14;;;;;;;;;;;;;;;21.19;49.41;102148.91;6362195;27;20070;-75
2022/06/17 09:52:22;;;;;;;2.50;1.50;;;;;;;21.25;49.75;102143.06;6373227;27;19920;-76
2022/06/17 09:55:29;;;;;;;2.40;1.00;;;;;;;21.32;50.13;102139.00;6373249;27;20054;-73
2022/06/17 09:58:36;;;;;;;2.60;1.17;;;;;;;21.31;50.59;102131.09;6373185;27;20059;-75
2022/06/17 10:01:37;;;;;;;1.67;1.17;;;;;;;21.41;50.12;102129.44;6372398;27;20054;-76
2022/06/17 10:04:39;;;;;;;3.80;1.13;;;;;;;21.55;48.98;102136.38;6372138;27;20050;-76
2022/06/17 10:07:48;;;;;;;1.98;1.40;;;;;;;21.60;49.37;102137.72;6372951;27;20047;-76
2022/06/17 10:10:53;;;;;;;;;;;;;;;21.67;48.20;102135.44;6373004;27;20056;-75
2022/06/17 10:14:07;;;;;;;1.30;0.93;;;;;;;21.69;49.81;102131.66;6372583;27;19942;-75
2022/06/17 10:20:48;;;;;;;1.83;1.30;;;;;;;21.74;51.57;102116.09;6397242;27;20043;-75
2022/06/17 10:23:57;;;;;;;1.23;1.13;;;;;;;21.81;50.92;102105.75;6398116;27;20054;-76
2022/06/17 10:27:08;;;;;;;3.17;1.50;;;;;;;21.87;49.93;102115.97;6398238;27;20043;-75
2022/06/17 10:30:14;;;;;;;1.98;1.42;;;;;;;22.06;47.88;102109.16;6397834;27;20050;-75
2022/06/17 10:33:17;;;;;;;1.10;1.02;;;;;;;22.08;47.62;102110.75;6397992;27;20042;-76
2022/06/17 10:36:19;;;;;;;4.65;1.30;;;;;;;22.02;49.28;102111.22;6397571;27;20050;-75
2022/06/17 10:39:24;;;;;;;3.45;1.67;;;;;;;21.91;47.54;102101.38;6397935;27;20055;-74
2022/06/17 10:42:28;;;;;;;4.38;1.33;;;;;;;21.87;47.46;102097.25;6397852;27;20046;-75
2022/06/17 10:45:29;;;;;;;1.42;0.95;;;;;;;21.92;47.36;102102.22;6397495;27;20150;-75
2022/06/17 10:48:35;;;;;;;0.93;0.70;;;;;;;21.89;48.21;102097.09;6396348;27;20046;-76
2022/06/17 10:51:39;;;;;;;4.80;1.90;;;;;;;21.91;47.20;102090.66;6397291;27;20042;-75
2022/06/17 10:54:43;;;;;;;5.53;1.08;;;;;;;22.01;48.21;102086.28;6397739;27;20043;-75
2022/06/17 10:58:07;;;;;;;1.98;1.30;;;;;;;22.24;48.00;102081.75;6397619;27;20054;-74
2022/06/17 11:01:13;;;;;;;2.47;1.20;;;;;;;22.76;46.96;102084.66;6397437;27;20051;-76
2022/06/17 11:04:19;;;;;;;2.05;1.23;;;;;;;22.85;44.87;102080.34;6397232;27;20061;-75
2022/06/17 11:07:27;;;;;;;1.63;1.20;;;;;;;22.80;46.19;102083.44;6397538;27;20094;-76
2022/06/17 11:10:32;;;;;;;1.33;0.95;;;;;;;22.88;46.22;102069.34;6397295;27;20053;-76
2022/06/17 11:13:34;;;;;;;2.78;0.90;;;;;;;22.91;45.55;102064.63;6398047;27;20078;-76
2022/06/17 11:16:40;;;;;;;1.98;1.38;;;;;;;22.99;45.05;102059.47;6379487;27;20043;-76
2022/06/17 11:19:43;;;;;;;1.85;1.58;;;;;;;22.99;42.73;102061.31;6388270;27;20043;-74
2022/06/17 11:22:52;;;;;;;1.45;1.25;;;;;;;22.85;45.19;102066.97;6371675;28;20047;-74
2022/06/17 11:26:10;;;;;;;1.30;1.00;;;;;;;23.01;43.81;102054.81;6356319;28;20055;-74
2022/06/17 11:29:22;;;;;;;3.03;1.37;;;;;;;23.09;42.78;102054.16;6346307;28;20048;-75
2022/06/17 11:32:31;;;;;;;2.83;1.15;;;;;;;23.07;41.92;102056.09;6345779;28;20301;-74
2022/06/17 11:35:39;;;;;;;1.73;1.20;;;;;;;23.23;42.54;102055.66;6346420;28;20047;-75
2022/06/17 11:38:41;;;;;;;2.03;0.97;;;;;;;23.44;41.62;102055.66;6346178;28;20059;-74
2022/06/17 11:41:43;;;;;;;1.83;1.20;;;;;;;23.44;40.21;102053.81;6345506;28;20040;-74
2022/06/17 11:44:54;;;;;;;1.88;1.20;;;;;;;23.34;42.06;102047.53;6345794;28;20051;-74
2022/06/17 11:48:00;;;;;;;2.13;0.95;;;;;;;23.38;42.86;102043.59;6362531;27;20042;-75
2022/06/17 11:51:10;;;;;;;5.10;1.08;;;;;;;23.53;42.14;102046.78;6401592;27;20038;-74
2022/06/17 11:54:20;;;;;;;2.58;0.98;;;;;;;23.62;39.87;102054.03;6401689;27;20141;-75
2022/06/17 11:57:26;;;;;;;1.20;1.08;;;;;;;23.43;39.63;102043.19;6401709;27;20103;-75
2022/06/17 12:00:43;;;;;;;2.10;1.25;;;;;;;23.37;40.60;102047.25;6401577;27;20047;-75
2022/06/17 12:03:46;;;;;;;1.08;1.00;;;;;;;23.43;39.96;102040.50;6401259;27;20043;-73
2022/06/17 12:06:48;;;;;;;1.30;1.08;;;;;;;23.48;40.91;102033.78;6401841;27;20047;-74
2022/06/17 12:09:54;;;;;;;2.15;1.45;;;;;;;23.48;41.17;102039.13;6401035;27;20047;-74
2022/06/17 12:13:02;;;;;;;0.70;0.70;;;;;;;23.35;41.49;102035.81;6401687;27;20046;-75
2022/06/17 12:16:11;;;;;;;1.90;1.15;;;;;;;23.34;42.23;102041.31;6401011;27;20495;-74
2022/06/17 12:19:17;;;;;;;1.52;1.02;;;;;;;23.26;41.65;102039.31;6399683;27;20130;-75
2022/06/17 12:22:23;;;;;;;3.47;1.13;;;;;;;23.27;40.41;102035.63;6401314;27;20065;-75
2022/06/17 12:25:35;;;;;;;1.58;1.30;;;;;;;23.26;39.79;102034.78;6401312;27;20053;-75
2022/06/17 12:28:45;;;;;;;1.88;1.17;;;;;;;23.36;40.45;102031.31;6401158;27;20050;-75
2022/06/17 12:31:53;;;;;;;1.70;1.05;;;;;;;23.44;40.38;102035.03;6400671;27;20042;-75
2022/06/17 12:35:03;;;;;;;3.42;1.55;;;;;;;23.44;40.69;102028.81;6400547;27;20531;-75
2022/06/17 12:38:12;;;;;;;1.20;1.10;;;;;;;23.41;40.24;102037.13;6400840;27;20414;-75
2022/06/17 12:41:21;;;;;;;2.05;0.90;;;;;;;23.42;41.03;102034.28;6400412;27;20047;-75
2022/06/17 12:44:38;;;;;;;1.27;1.10;;;;;;;23.51;40.51;102030.81;6400554;27;20058;-75
2022/06/17 12:47:49;;;;;;;1.90;1.13;;;;;;;23.44;40.92;102035.03;6398931;27;20421;-76
2022/06/17 12:54:27;;;;;;;2.05;1.10;;;;;;;23.39;41.55;102039.94;6400190;27;20054;-75
2022/06/17 12:57:36;;;;;;;2.95;1.42;;;;;;;23.37;40.47;102038.38;6400528;27;20054;-74
2022/06/17 13:00:43;;;;;;;1.30;1.05;;;;;;;23.32;41.86;102033.41;6399994;27;20497;-75
2022/06/17 13:03:59;;;;;;;1.60;1.20;;;;;;;23.28;41.46;102026.59;6400191;27;20061;-75
2022/06/17 13:07:09;;;;;;;1.92;1.17;;;;;;;23.40;41.47;102019.31;6400528;27;20047;-76
2022/06/17 13:13:54;;;;;;;2.45;1.23;;;;;;;23.35;43.52;102010.84;6400244;27;20121;-74
2022/06/17 13:17:05;;;;;;;2.95;1.10;;;;;;;23.40;43.37;102012.13;6397187;27;20065;-74
2022/06/17 13:20:14;;;;;;;2.08;1.20;;;;;;;23.40;43.05;102006.75;6373972;27;20079;-75
2022/06/17 13:23:22;;;;;;;1.90;1.15;;;;;;;23.41;42.08;102002.25;6374093;27;20517;-75
2022/06/17 13:26:30;;;;;;;3.53;1.30;;;;;;;23.41;42.06;101999.56;6373610;27;20136;-75
2022/06/17 13:29:43;;;;;;;1.03;0.93;;;;;;;23.50;41.61;101996.91;6373708;27;20413;-75
2022/06/17 13:32:55;;;;;;;2.47;0.90;;;;;;;23.51;41.01;101984.34;6373911;27;20047;-75
2022/06/17 13:36:02;;;;;;;3.95;0.98;;;;;;;23.67;39.98;101986.56;6373383;27;20043;-74
2022/06/17 13:39:07;;;;;;;1.00;0.90;;;;;;;23.68;40.04;101983.72;6373524;27;20419;-75
2022/06/17 13:42:11;;;;;;;1.35;1.10;;;;;;;23.66;40.86;101976.78;6373286;27;20048;-75
2022/06/17 13:45:24;;;;;;;2.45;1.00;;;;;;;23.59;40.29;101971.09;6373064;27;20055;-74
2022/06/17 13:48:31;;;;;;;1.00;0.77;;;;;;;23.53;41.20;101971.66;6390143;27;20065;-75
2022/06/17 13:51:39;;;;;;;1.02;0.90;;;;;;;23.52;40.68;101975.28;6399018;27;20049;-78
2022/06/17 13:54:47;;;;;;;0.98;0.85;;;;;;;23.70;39.41;101971.00;6398724;27;20054;-78
2022/06/17 13:57:57;;;;;;;2.33;1.20;;;;;;;23.78;39.71;101971.16;6399278;27;20047;-77
2022/06/17 14:01:08;;;;;;;1.55;1.10;;;;;;;23.79;40.90;101955.91;6398629;27;20042;-78
2022/06/17 14:04:15;;;;;;;1.75;1.15;;;;;;;23.73;40.11;101959.16;6399136;27;20051;-77
2022/06/17 14:07:17;;;;;;;1.30;0.90;;;;;;;23.67;39.23;101952.50;6399087;27;20497;-77
2022/06/17 14:10:36;;;;;;;1.42;1.27;;;;;;;23.58;40.16;101941.72;6398074;27;20051;-77
2022/06/17 14:13:37;;;;;;;1.63;1.02;;;;;;;23.50;41.15;101947.75;6398818;27;20042;-78
2022/06/17 14:16:39;;;;;;;2.65;1.02;;;;;;;23.44;41.26;101948.31;6394937;27;20038;-77
2022/06/17 14:19:47;;;;;;;1.50;1.13;;;;;;;23.43;41.84;101947.44;6372599;27;20084;-78
2022/06/17 14:23:05;;;;;;;1.48;1.30;;;;;;;23.39;42.10;101943.34;6373412;27;20043;-77
2022/06/17 14:26:06;;;;;;;1.15;1.00;;;;;;;23.43;40.66;101946.59;6372364;27;20051;-78
2022/06/17 14:29:14;;;;;;;1.02;0.80;;;;;;;23.45;42.05;101960.75;6372776;27;20051;-77
2022/06/17 14:32:18;;;;;;;1.67;0.63;;;;;;;23.45;42.65;101958.91;6372610;27;20490;-78
2022/06/17 14:35:29;;;;;;;2.15;1.15;;;;;;;23.42;42.25;101952.94;6372162;27;20130;-78
2022/06/17 14:38:34;;;;;;;1.42;1.00;;;;;;;23.54;40.82;101949.19;6373016;27;20505;-78